createdAt,value
2022-11-27T00:12:42.173Z,1.92
2022-11-27T00:32:42.129Z,1.86
2022-11-27T00:52:42.145Z,1.56
2022-11-27T01:12:42.166Z,1.53
2022-11-27T01:32:42.281Z,1.38
2022-11-27T01:52:42.140Z,1.18
2022-11-27T02:12:42.227Z,0.80
2022-11-27T02:32:42.178Z,0.88
2022-11-27T02:52:42.226Z,0.52
2022-11-27T03:12:42.205Z,0.43
2022-11-27T03:32:42.217Z,0.22
2022-11-27T03:52:42.235Z,0.28
2022-11-27T04:12:42.168Z,0.34
2022-11-27T04:32:42.223Z,0.24
2022-11-27T04:52:42.228Z,0.39
2022-11-27T05:12:42.220Z,0.44
2022-11-27T05:32:42.265Z,0.43
2022-11-27T05:52:42.249Z,0.16
2022-11-27T06:12:42.252Z,0.24
2022-11-27T06:32:42.288Z,0.19
2022-11-27T06:52:42.318Z,0.11
2022-11-27T07:12:42.202Z,0.07
2022-11-27T07:32:42.275Z,0.06
2022-11-27T07:52:42.326Z,0.38
2022-11-27T08:13:55.005Z,0.60
2022-11-27T08:32:42.399Z,0.93
2022-11-27T08:52:42.372Z,1.08
2022-11-27T09:12:42.333Z,1.27
2022-11-27T09:32:42.305Z,1.50
2022-11-27T09:52:42.251Z,1.68
2022-11-27T10:12:42.279Z,1.72
2022-11-27T10:32:42.495Z,1.90
2022-11-27T10:52:42.522Z,2.24
2022-11-27T11:12:42.462Z,2.19
2022-11-27T11:32:42.350Z,2.50
2022-11-27T11:52:42.310Z,2.80
2022-11-27T12:12:42.400Z,2.68
2022-11-27T12:32:42.428Z,2.71
2022-11-27T12:52:42.298Z,2.77
2022-11-27T13:12:42.374Z,2.88
2022-11-27T13:32:42.448Z,2.90
2022-11-27T13:52:42.284Z,3.04
2022-11-27T14:32:42.319Z,3.13
2022-11-27T14:52:42.276Z,2.89
2022-11-27T15:12:42.359Z,2.87
2022-11-27T15:32:42.309Z,3.00
2022-11-27T15:52:42.321Z,2.68
2022-11-27T16:12:42.238Z,2.92
2022-11-27T16:32:42.257Z,2.90
2022-11-27T16:52:42.295Z,3.04
2022-11-27T17:12:42.359Z,3.10
2022-11-27T17:32:42.288Z,2.97
2022-11-27T17:52:42.300Z,2.91
2022-11-27T18:12:42.225Z,3.03
2022-11-27T18:32:42.436Z,3.11
2022-11-27T18:52:42.244Z,2.94
2022-11-27T19:12:42.254Z,2.81
2022-11-27T19:32:42.285Z,2.81
2022-11-27T19:52:42.282Z,2.75
2022-11-27T20:12:42.295Z,2.58
2022-11-27T20:32:42.212Z,2.75
2022-11-27T20:52:42.223Z,2.98
2022-11-27T21:12:42.233Z,3.20
2022-11-27T21:32:42.245Z,3.37
2022-11-27T21:52:42.279Z,3.47
2022-11-27T22:12:42.271Z,3.51
2022-11-27T22:32:42.281Z,3.52
2022-11-27T22:52:42.199Z,3.19
2022-11-27T23:12:42.207Z,3.05
2022-11-27T23:32:42.226Z,2.90
2022-11-27T23:52:42.248Z,2.92
